sensor_id;sensor_type;location;lat;lon;timestamp;P1;durP1;ratioP1;P2;durP2;ratioP2
55756;SDS011;41676;44.610;44.078;2023-04-25T00:01:18;13.45;;;10.43;;
55756;SDS011;41676;44.610;44.078;2023-04-25T00:06:19;15.57;;;11.40;;
55756;SDS011;41676;44.610;44.078;2023-04-25T00:11:20;15.48;;;11.38;;
55756;SDS011;41676;44.610;44.078;2023-04-25T00:16:20;15.75;;;10.80;;
55756;SDS011;41676;44.610;44.078;2023-04-25T00:21:21;15.57;;;10.55;;
55756;SDS011;41676;44.610;44.078;2023-04-25T00:26:24;14.68;;;11.35;;
55756;SDS011;41676;44.610;44.078;2023-04-25T00:31:25;13.07;;;11.18;;
55756;SDS011;41676;44.610;44.078;2023-04-25T00:36:26;16.23;;;11.57;;
55756;SDS011;41676;44.610;44.078;2023-04-25T00:41:27;16.60;;;12.05;;
55756;SDS011;41676;44.610;44.078;2023-04-25T00:46:30;12.30;;;11.00;;
55756;SDS011;41676;44.610;44.078;2023-04-25T00:51:31;14.10;;;11.60;;
55756;SDS011;41676;44.610;44.078;2023-04-25T00:56:33;16.27;;;13.77;;
55756;SDS011;41676;44.610;44.078;2023-04-25T01:01:34;16.83;;;14.30;;
55756;SDS011;41676;44.610;44.078;2023-04-25T01:06:36;16.55;;;14.30;;
55756;SDS011;41676;44.610;44.078;2023-04-25T01:11:37;19.02;;;14.98;;
55756;SDS011;41676;44.610;44.078;2023-04-25T01:16:37;18.08;;;15.65;;
55756;SDS011;41676;44.610;44.078;2023-04-25T01:21:38;18.75;;;16.33;;
55756;SDS011;41676;44.610;44.078;2023-04-25T01:26:40;18.92;;;16.67;;
55756;SDS011;41676;44.610;44.078;2023-04-25T01:31:45;18.90;;;16.25;;
55756;SDS011;41676;44.610;44.078;2023-04-25T01:36:49;19.92;;;16.27;;
55756;SDS011;41676;44.610;44.078;2023-04-25T01:46:51;21.42;;;16.77;;
55756;SDS011;41676;44.610;44.078;2023-04-25T01:51:52;20.13;;;16.42;;
55756;SDS011;41676;44.610;44.078;2023-04-25T01:56:53;20.42;;;16.98;;
55756;SDS011;41676;44.610;44.078;2023-04-25T02:01:57;21.05;;;17.15;;
55756;SDS011;41676;44.610;44.078;2023-04-25T02:06:58;23.05;;;17.08;;
55756;SDS011;41676;44.610;44.078;2023-04-25T02:11:59;19.55;;;16.60;;
55756;SDS011;41676;44.610;44.078;2023-04-25T02:17:00;19.08;;;16.45;;
55756;SDS011;41676;44.610;44.078;2023-04-25T02:22:01;19.50;;;15.90;;
55756;SDS011;41676;44.610;44.078;2023-04-25T02:27:02;19.20;;;15.20;;
55756;SDS011;41676;44.610;44.078;2023-04-25T02:32:04;18.42;;;14.77;;
55756;SDS011;41676;44.610;44.078;2023-04-25T02:37:05;16.75;;;14.15;;
55756;SDS011;41676;44.610;44.078;2023-04-25T02:42:06;23.70;;;15.48;;
55756;SDS011;41676;44.610;44.078;2023-04-25T02:47:06;18.60;;;13.30;;
55756;SDS011;41676;44.610;44.078;2023-04-25T02:52:07;15.23;;;11.50;;
55756;SDS011;41676;44.610;44.078;2023-04-25T02:57:08;12.50;;;10.00;;
55756;SDS011;41676;44.610;44.078;2023-04-25T03:02:09;14.63;;;9.25;;
55756;SDS011;41676;44.610;44.078;2023-04-25T03:07:10;12.68;;;7.70;;
55756;SDS011;41676;44.610;44.078;2023-04-25T03:12:11;8.88;;;5.57;;
55756;SDS011;41676;44.610;44.078;2023-04-25T03:17:12;6.45;;;4.30;;
55756;SDS011;41676;44.610;44.078;2023-04-25T03:22:13;5.10;;;3.50;;
55756;SDS011;41676;44.610;44.078;2023-04-25T03:27:13;5.05;;;3.33;;
55756;SDS011;41676;44.610;44.078;2023-04-25T03:32:14;3.78;;;2.72;;
55756;SDS011;41676;44.610;44.078;2023-04-25T03:37:16;4.07;;;2.67;;
55756;SDS011;41676;44.610;44.078;2023-04-25T03:42:16;3.35;;;2.35;;
55756;SDS011;41676;44.610;44.078;2023-04-25T03:47:17;3.75;;;2.60;;
55756;SDS011;41676;44.610;44.078;2023-04-25T03:52:18;3.00;;;2.15;;
55756;SDS011;41676;44.610;44.078;2023-04-25T03:57:19;3.03;;;2.00;;
55756;SDS011;41676;44.610;44.078;2023-04-25T04:02:20;3.42;;;2.03;;
55756;SDS011;41676;44.610;44.078;2023-04-25T04:07:20;2.55;;;1.40;;
55756;SDS011;41676;44.610;44.078;2023-04-25T04:12:21;2.10;;;1.20;;
55756;SDS011;41676;44.610;44.078;2023-04-25T04:17:22;3.83;;;1.25;;
55756;SDS011;41676;44.610;44.078;2023-04-25T04:22:23;3.72;;;1.50;;
55756;SDS011;41676;44.610;44.078;2023-04-25T04:27:24;3.00;;;1.40;;
55756;SDS011;41676;44.610;44.078;2023-04-25T04:32:25;2.35;;;1.10;;
55756;SDS011;41676;44.610;44.078;2023-04-25T04:37:27;1.50;;;0.90;;
55756;SDS011;41676;44.610;44.078;2023-04-25T04:42:28;1.45;;;0.90;;
55756;SDS011;41676;44.610;44.078;2023-04-25T04:47:29;2.28;;;0.90;;
55756;SDS011;41676;44.610;44.078;2023-04-25T04:52:34;2.80;;;1.00;;
55756;SDS011;41676;44.610;44.078;2023-04-25T04:57:35;1.73;;;0.80;;
55756;SDS011;41676;44.610;44.078;2023-04-25T05:02:38;9.30;;;0.98;;
55756;SDS011;41676;44.610;44.078;2023-04-25T05:07:40;6.00;;;0.85;;
55756;SDS011;41676;44.610;44.078;2023-04-25T05:12:40;2.40;;;0.77;;
55756;SDS011;41676;44.610;44.078;2023-04-25T05:17:41;2.17;;;0.80;;
55756;SDS011;41676;44.610;44.078;2023-04-25T05:22:42;2.85;;;0.80;;
55756;SDS011;41676;44.610;44.078;2023-04-25T05:27:43;3.13;;;1.10;;
55756;SDS011;41676;44.610;44.078;2023-04-25T05:32:43;2.38;;;0.90;;
55756;SDS011;41676;44.610;44.078;2023-04-25T05:37:44;4.00;;;0.70;;
55756;SDS011;41676;44.610;44.078;2023-04-25T05:42:45;3.22;;;0.80;;
55756;SDS011;41676;44.610;44.078;2023-04-25T05:47:46;6.85;;;0.98;;
55756;SDS011;41676;44.610;44.078;2023-04-25T05:52:47;2.28;;;0.73;;
55756;SDS011;41676;44.610;44.078;2023-04-25T05:57:47;2.35;;;0.65;;
55756;SDS011;41676;44.610;44.078;2023-04-25T06:02:48;1.00;;;0.60;;
55756;SDS011;41676;44.610;44.078;2023-04-25T06:07:49;2.47;;;0.60;;
55756;SDS011;41676;44.610;44.078;2023-04-25T06:12:51;0.90;;;0.47;;
55756;SDS011;41676;44.610;44.078;2023-04-25T06:17:52;1.75;;;0.80;;
55756;SDS011;41676;44.610;44.078;2023-04-25T06:22:53;3.15;;;0.60;;
55756;SDS011;41676;44.610;44.078;2023-04-25T06:27:53;0.88;;;0.50;;
55756;SDS011;41676;44.610;44.078;2023-04-25T06:32:54;1.65;;;0.60;;
55756;SDS011;41676;44.610;44.078;2023-04-25T06:37:55;8.20;;;1.05;;
55756;SDS011;41676;44.610;44.078;2023-04-25T06:42:56;2.03;;;0.65;;
55756;SDS011;41676;44.610;44.078;2023-04-25T06:47:57;1.33;;;0.50;;
55756;SDS011;41676;44.610;44.078;2023-04-25T06:52:58;1.02;;;0.60;;
55756;SDS011;41676;44.610;44.078;2023-04-25T06:57:58;1.10;;;0.50;;
55756;SDS011;41676;44.610;44.078;2023-04-25T07:03:00;0.98;;;0.50;;
55756;SDS011;41676;44.610;44.078;2023-04-25T07:08:00;1.77;;;0.60;;
55756;SDS011;41676;44.610;44.078;2023-04-25T07:13:01;7.03;;;1.00;;
55756;SDS011;41676;44.610;44.078;2023-04-25T07:18:02;2.50;;;0.60;;
55756;SDS011;41676;44.610;44.078;2023-04-25T07:23:03;0.80;;;0.50;;
55756;SDS011;41676;44.610;44.078;2023-04-25T07:28:04;3.13;;;0.60;;
55756;SDS011;41676;44.610;44.078;2023-04-25T07:33:05;2.60;;;0.57;;
55756;SDS011;41676;44.610;44.078;2023-04-25T07:38:05;2.70;;;0.57;;
55756;SDS011;41676;44.610;44.078;2023-04-25T07:43:06;2.28;;;0.50;;
55756;SDS011;41676;44.610;44.078;2023-04-25T07:48:07;1.15;;;0.50;;
55756;SDS011;41676;44.610;44.078;2023-04-25T07:53:09;1.63;;;0.60;;
55756;SDS011;41676;44.610;44.078;2023-04-25T07:58:11;3.45;;;0.98;;
55756;SDS011;41676;44.610;44.078;2023-04-25T08:03:12;1.90;;;0.90;;
55756;SDS011;41676;44.610;44.078;2023-04-25T08:08:13;2.38;;;0.80;;
55756;SDS011;41676;44.610;44.078;2023-04-25T08:13:13;2.88;;;0.80;;
55756;SDS011;41676;44.610;44.078;2023-04-25T08:18:14;1.65;;;0.70;;
55756;SDS011;41676;44.610;44.078;2023-04-25T08:23:15;1.38;;;0.70;;
55756;SDS011;41676;44.610;44.078;2023-04-25T08:28:16;1.92;;;0.75;;
55756;SDS011;41676;44.610;44.078;2023-04-25T08:33:17;1.80;;;0.52;;
55756;SDS011;41676;44.610;44.078;2023-04-25T08:38:17;1.63;;;0.70;;
55756;SDS011;41676;44.610;44.078;2023-04-25T08:43:19;4.65;;;0.88;;
55756;SDS011;41676;44.610;44.078;2023-04-25T08:48:20;1.73;;;0.68;;
55756;SDS011;41676;44.610;44.078;2023-04-25T08:53:24;6.03;;;0.88;;
55756;SDS011;41676;44.610;44.078;2023-04-25T08:58:27;1.30;;;0.70;;
55756;SDS011;41676;44.610;44.078;2023-04-25T09:03:28;3.83;;;1.05;;
55756;SDS011;41676;44.610;44.078;2023-04-25T09:08:29;1.77;;;0.70;;
55756;SDS011;41676;44.610;44.078;2023-04-25T09:13:30;2.13;;;0.77;;
55756;SDS011;41676;44.610;44.078;2023-04-25T09:18:31;6.78;;;0.90;;
55756;SDS011;41676;44.610;44.078;2023-04-25T09:23:49;1.50;;;0.65;;
55756;SDS011;41676;44.610;44.078;2023-04-25T09:29:00;1.70;;;0.75;;
55756;SDS011;41676;44.610;44.078;2023-04-25T09:34:07;1.17;;;0.68;;
55756;SDS011;41676;44.610;44.078;2023-04-25T09:39:12;2.35;;;0.68;;
55756;SDS011;41676;44.610;44.078;2023-04-25T09:44:19;2.00;;;0.77;;
55756;SDS011;41676;44.610;44.078;2023-04-25T09:49:27;3.83;;;0.90;;
55756;SDS011;41676;44.610;44.078;2023-04-25T09:54:28;3.63;;;1.40;;
55756;SDS011;41676;44.610;44.078;2023-04-25T09:59:29;2.85;;;0.90;;
55756;SDS011;41676;44.610;44.078;2023-04-25T10:04:32;5.90;;;1.58;;
55756;SDS011;41676;44.610;44.078;2023-04-25T10:09:38;1.92;;;0.90;;
55756;SDS011;41676;44.610;44.078;2023-04-25T10:14:40;1.63;;;0.60;;
55756;SDS011;41676;44.610;44.078;2023-04-25T10:19:42;2.13;;;0.80;;
55756;SDS011;41676;44.610;44.078;2023-04-25T10:24:43;1.95;;;0.90;;
55756;SDS011;41676;44.610;44.078;2023-04-25T10:29:46;2.43;;;0.90;;
55756;SDS011;41676;44.610;44.078;2023-04-25T10:35:18;2.08;;;0.80;;
55756;SDS011;41676;44.610;44.078;2023-04-25T10:40:24;3.92;;;2.22;;
55756;SDS011;41676;44.610;44.078;2023-04-25T10:45:24;3.75;;;1.65;;
55756;SDS011;41676;44.610;44.078;2023-04-25T10:50:31;2.80;;;1.45;;
55756;SDS011;41676;44.610;44.078;2023-04-25T10:55:51;3.78;;;1.30;;
55756;SDS011;41676;44.610;44.078;2023-04-25T11:05:53;2.17;;;1.25;;
55756;SDS011;41676;44.610;44.078;2023-04-25T11:10:54;1.80;;;0.80;;
55756;SDS011;41676;44.610;44.078;2023-04-25T11:15:55;6.30;;;0.90;;
55756;SDS011;41676;44.610;44.078;2023-04-25T11:20:56;1.95;;;0.80;;
55756;SDS011;41676;44.610;44.078;2023-04-25T11:25:57;4.05;;;0.88;;
55756;SDS011;41676;44.610;44.078;2023-04-25T11:30:58;4.70;;;0.80;;
55756;SDS011;41676;44.610;44.078;2023-04-25T11:35:58;2.22;;;1.05;;
55756;SDS011;41676;44.610;44.078;2023-04-25T11:41:00;2.38;;;0.70;;
55756;SDS011;41676;44.610;44.078;2023-04-25T11:46:00;3.70;;;1.00;;
55756;SDS011;41676;44.610;44.078;2023-04-25T11:51:01;1.80;;;0.88;;
55756;SDS011;41676;44.610;44.078;2023-04-25T11:56:08;3.00;;;1.10;;
55756;SDS011;41676;44.610;44.078;2023-04-25T12:01:11;6.65;;;1.00;;
55756;SDS011;41676;44.610;44.078;2023-04-25T12:06:15;1.98;;;0.60;;
55756;SDS011;41676;44.610;44.078;2023-04-25T12:11:21;9.00;;;0.85;;
55756;SDS011;41676;44.610;44.078;2023-04-25T12:16:22;1.55;;;0.70;;
55756;SDS011;41676;44.610;44.078;2023-04-25T12:21:22;2.70;;;0.60;;
55756;SDS011;41676;44.610;44.078;2023-04-25T12:26:23;1.88;;;0.68;;
55756;SDS011;41676;44.610;44.078;2023-04-25T12:31:25;2.30;;;0.88;;
55756;SDS011;41676;44.610;44.078;2023-04-25T12:36:26;1.33;;;0.63;;
55756;SDS011;41676;44.610;44.078;2023-04-25T12:41:27;1.58;;;0.60;;
55756;SDS011;41676;44.610;44.078;2023-04-25T12:46:28;2.67;;;0.80;;
55756;SDS011;41676;44.610;44.078;2023-04-25T12:51:29;2.50;;;0.60;;
55756;SDS011;41676;44.610;44.078;2023-04-25T12:56:30;1.65;;;0.32;;
55756;SDS011;41676;44.610;44.078;2023-04-25T13:01:31;2.47;;;0.55;;
55756;SDS011;41676;44.610;44.078;2023-04-25T13:06:32;0.70;;;0.40;;
55756;SDS011;41676;44.610;44.078;2023-04-25T13:11:33;1.45;;;0.43;;
55756;SDS011;41676;44.610;44.078;2023-04-25T13:16:33;1.83;;;0.47;;
55756;SDS011;41676;44.610;44.078;2023-04-25T13:21:34;1.25;;;0.40;;
55756;SDS011;41676;44.610;44.078;2023-04-25T13:26:35;2.17;;;0.50;;
55756;SDS011;41676;44.610;44.078;2023-04-25T13:31:36;2.78;;;1.35;;
55756;SDS011;41676;44.610;44.078;2023-04-25T13:36:37;1.42;;;0.68;;
55756;SDS011;41676;44.610;44.078;2023-04-25T13:41:38;3.15;;;0.40;;
55756;SDS011;41676;44.610;44.078;2023-04-25T13:46:39;10.90;;;4.03;;
55756;SDS011;41676;44.610;44.078;2023-04-25T13:51:40;1.40;;;0.75;;
55756;SDS011;41676;44.610;44.078;2023-04-25T13:56:42;0.93;;;0.52;;
55756;SDS011;41676;44.610;44.078;2023-04-25T14:01:43;4.35;;;0.90;;
55756;SDS011;41676;44.610;44.078;2023-04-25T14:06:43;10.10;;;4.43;;
55756;SDS011;41676;44.610;44.078;2023-04-25T14:11:45;3.38;;;1.30;;
55756;SDS011;41676;44.610;44.078;2023-04-25T14:16:48;2.30;;;0.90;;
55756;SDS011;41676;44.610;44.078;2023-04-25T14:21:50;3.17;;;1.08;;
55756;SDS011;41676;44.610;44.078;2023-04-25T14:26:51;1.95;;;0.75;;
55756;SDS011;41676;44.610;44.078;2023-04-25T14:31:52;2.70;;;0.60;;
55756;SDS011;41676;44.610;44.078;2023-04-25T14:36:53;2.00;;;0.93;;
55756;SDS011;41676;44.610;44.078;2023-04-25T14:41:54;3.65;;;1.50;;
55756;SDS011;41676;44.610;44.078;2023-04-25T14:46:56;5.20;;;0.93;;
55756;SDS011;41676;44.610;44.078;2023-04-25T14:51:57;2.60;;;1.10;;
55756;SDS011;41676;44.610;44.078;2023-04-25T14:56:57;4.50;;;1.23;;
55756;SDS011;41676;44.610;44.078;2023-04-25T15:01:58;1.95;;;0.88;;
55756;SDS011;41676;44.610;44.078;2023-04-25T15:06:59;1.40;;;0.70;;
55756;SDS011;41676;44.610;44.078;2023-04-25T15:12:00;2.83;;;0.80;;
55756;SDS011;41676;44.610;44.078;2023-04-25T15:17:00;2.42;;;0.85;;
55756;SDS011;41676;44.610;44.078;2023-04-25T15:22:02;3.38;;;0.90;;
55756;SDS011;41676;44.610;44.078;2023-04-25T15:27:03;1.65;;;0.80;;
55756;SDS011;41676;44.610;44.078;2023-04-25T15:32:04;2.55;;;0.90;;
55756;SDS011;41676;44.610;44.078;2023-04-25T15:37:05;3.38;;;1.10;;
55756;SDS011;41676;44.610;44.078;2023-04-25T15:42:06;3.33;;;1.20;;
55756;SDS011;41676;44.610;44.078;2023-04-25T15:47:15;3.70;;;1.10;;
55756;SDS011;41676;44.610;44.078;2023-04-25T15:52:15;2.60;;;1.10;;
55756;SDS011;41676;44.610;44.078;2023-04-25T15:57:20;4.18;;;1.15;;
55756;SDS011;41676;44.610;44.078;2023-04-25T16:02:22;10.13;;;1.17;;
55756;SDS011;41676;44.610;44.078;2023-04-25T16:07:22;6.45;;;1.30;;
55756;SDS011;41676;44.610;44.078;2023-04-25T16:12:23;10.60;;;5.10;;
55756;SDS011;41676;44.610;44.078;2023-04-25T16:17:24;15.55;;;7.03;;
55756;SDS011;41676;44.610;44.078;2023-04-25T16:22:25;14.95;;;6.13;;
55756;SDS011;41676;44.610;44.078;2023-04-25T16:27:27;8.75;;;4.72;;
55756;SDS011;41676;44.610;44.078;2023-04-25T16:32:27;14.55;;;6.80;;
55756;SDS011;41676;44.610;44.078;2023-04-25T16:37:28;14.18;;;6.55;;
55756;SDS011;41676;44.610;44.078;2023-04-25T16:42:30;15.23;;;6.18;;
55756;SDS011;41676;44.610;44.078;2023-04-25T16:47:30;10.25;;;4.40;;
